createdAt,value
2018-03-04T00:02:03.734Z,88.10
2018-03-04T00:04:35.007Z,88.50
2018-03-04T00:07:04.284Z,88.80
2018-03-04T00:09:33.379Z,88.20
2018-03-04T00:12:02.945Z,88.50
2018-03-04T00:14:32.801Z,88.80
2018-03-04T00:17:02.533Z,89.00
2018-03-04T00:19:31.684Z,88.90
2018-03-04T00:22:01.693Z,88.50
2018-03-04T00:24:31.333Z,87.90
2018-03-04T00:27:01.120Z,88.20
2018-03-04T00:29:31.919Z,88.40
2018-03-04T00:32:01.317Z,88.40
2018-03-04T00:34:31.942Z,88.80
2018-03-04T00:37:01.938Z,88.30
2018-03-04T00:39:31.654Z,88.60
2018-03-04T00:42:02.070Z,88.80
2018-03-04T00:44:31.963Z,88.90
2018-03-04T00:47:02.982Z,89.00
2018-03-04T00:49:32.529Z,89.10
2018-03-04T00:52:02.084Z,88.80
2018-03-04T00:54:31.448Z,88.70
2018-03-04T00:57:01.466Z,89.10
2018-03-04T00:59:30.768Z,89.10
2018-03-04T01:02:00.417Z,89.20
2018-03-04T01:04:32.044Z,89.40
2018-03-04T01:07:02.305Z,89.30
2018-03-04T01:09:31.651Z,89.30
2018-03-04T01:12:01.628Z,89.10
2018-03-04T01:14:31.550Z,88.50
2018-03-04T01:17:02.153Z,88.80
2018-03-04T01:19:31.778Z,88.70
2018-03-04T01:22:02.013Z,89.00
2018-03-04T01:24:31.441Z,88.90
2018-03-04T01:27:00.198Z,89.50
2018-03-04T01:29:30.285Z,89.90
2018-03-04T01:32:00.188Z,89.80
2018-03-04T01:34:28.948Z,89.70
2018-03-04T01:36:58.382Z,89.80
2018-03-04T01:39:27.738Z,89.70
2018-03-04T01:41:57.569Z,89.80
2018-03-04T01:44:27.859Z,90.00
2018-03-04T01:46:57.184Z,89.90
2018-03-04T01:49:26.175Z,90.00
2018-03-04T01:51:55.166Z,90.00
2018-03-04T01:54:24.585Z,90.30
2018-03-04T01:56:53.571Z,90.60
2018-03-04T01:59:23.325Z,90.60
2018-03-04T02:01:52.450Z,90.60
2018-03-04T02:04:22.741Z,90.70
2018-03-04T02:06:51.603Z,90.70
2018-03-04T02:09:20.718Z,90.60
2018-03-04T02:11:50.016Z,90.70
2018-03-04T02:14:18.420Z,90.70
2018-03-04T02:16:47.398Z,90.70
2018-03-04T02:19:16.887Z,90.80
2018-03-04T02:21:45.819Z,90.90
2018-03-04T02:24:15.044Z,90.90
2018-03-04T02:26:44.359Z,91.00
2018-03-04T02:29:13.006Z,91.00
2018-03-04T02:31:42.266Z,91.00
2018-03-04T02:34:11.320Z,91.10
2018-03-04T02:36:40.393Z,91.20
2018-03-04T02:39:10.394Z,91.20
2018-03-04T02:41:40.082Z,91.30
2018-03-04T02:44:09.103Z,91.30
2018-03-04T02:46:37.625Z,91.30
2018-03-04T02:49:06.556Z,91.20
2018-03-04T02:51:36.120Z,91.30
2018-03-04T02:54:04.546Z,91.30
2018-03-04T02:56:33.829Z,91.30
2018-03-04T02:59:02.396Z,91.50
2018-03-04T03:01:30.638Z,91.70
2018-03-04T03:03:59.289Z,91.70
2018-03-04T03:06:27.559Z,91.70
2018-03-04T03:08:55.941Z,91.60
2018-03-04T03:11:24.703Z,91.50
2018-03-04T03:13:53.144Z,91.50
2018-03-04T03:16:21.997Z,91.50
2018-03-04T03:18:51.409Z,91.50
2018-03-04T03:21:21.292Z,91.60
2018-03-04T03:23:50.205Z,91.60
2018-03-04T03:26:19.306Z,91.50
2018-03-04T03:28:49.234Z,91.50
2018-03-04T03:31:17.790Z,91.40
2018-03-04T03:33:46.784Z,91.50
2018-03-04T03:36:15.409Z,91.60
2018-03-04T03:38:44.986Z,91.50
2018-03-04T03:41:14.717Z,91.70
2018-03-04T03:43:43.051Z,91.60
2018-03-04T03:46:11.535Z,91.70
2018-03-04T03:48:40.145Z,91.70
2018-03-04T03:51:09.432Z,91.60
2018-03-04T03:53:38.754Z,91.70
2018-03-04T03:56:07.103Z,91.70
2018-03-04T03:58:35.987Z,91.70
2018-03-04T04:01:04.319Z,91.70
2018-03-04T04:03:32.961Z,91.70
2018-03-04T04:06:02.329Z,91.70
2018-03-04T04:08:31.398Z,91.60
2018-03-04T04:11:00.055Z,91.60
2018-03-04T04:13:28.388Z,91.60
2018-03-04T04:15:56.684Z,91.50
2018-03-04T04:18:25.451Z,91.40
2018-03-04T04:20:54.033Z,91.50
2018-03-04T04:23:22.609Z,91.50
2018-03-04T04:25:51.055Z,91.60
2018-03-04T04:28:19.874Z,91.50
2018-03-04T04:30:48.429Z,91.30
2018-03-04T04:33:16.820Z,91.20
2018-03-04T04:35:45.236Z,91.00
2018-03-04T04:38:13.618Z,91.20
2018-03-04T04:40:42.849Z,91.40
2018-03-04T04:43:11.612Z,91.40
2018-03-04T04:45:40.109Z,91.50
2018-03-04T04:48:08.812Z,91.40
2018-03-04T04:50:37.294Z,91.50
2018-03-04T04:53:05.543Z,91.60
2018-03-04T04:55:34.727Z,91.60
2018-03-04T04:58:02.989Z,91.60
2018-03-04T05:00:32.175Z,91.60
2018-03-04T05:03:00.974Z,91.60
2018-03-04T05:05:29.644Z,91.60
2018-03-04T05:07:58.447Z,91.60
2018-03-04T05:10:26.998Z,91.60
2018-03-04T05:12:55.685Z,91.60
2018-03-04T05:15:24.579Z,91.60
2018-03-04T05:17:53.327Z,91.50
2018-03-04T05:20:22.996Z,91.60
2018-03-04T05:22:51.335Z,91.60
2018-03-04T05:25:19.868Z,91.50
2018-03-04T05:27:49.223Z,91.70
2018-03-04T05:30:18.542Z,91.70
2018-03-04T05:32:48.107Z,91.80
2018-03-04T05:35:16.712Z,91.70
2018-03-04T05:37:45.210Z,91.70
2018-03-04T05:40:14.076Z,91.70
2018-03-04T05:42:43.019Z,91.60
2018-03-04T05:45:11.669Z,91.80
2018-03-04T05:47:40.292Z,91.70
2018-03-04T05:50:09.732Z,91.60
2018-03-04T05:52:38.675Z,91.60
2018-03-04T05:55:07.300Z,91.70
2018-03-04T05:57:36.233Z,91.60
2018-03-04T06:00:05.022Z,91.80
2018-03-04T06:02:33.912Z,91.80
2018-03-04T06:05:02.553Z,91.70
2018-03-04T06:07:31.403Z,91.80
2018-03-04T06:10:00.474Z,91.80
2018-03-04T06:12:29.354Z,92.00
2018-03-04T06:14:58.634Z,92.00
2018-03-04T06:17:27.586Z,91.90
2018-03-04T06:19:56.522Z,91.90
2018-03-04T06:22:25.855Z,91.90
2018-03-04T06:24:54.690Z,91.90
2018-03-04T06:27:24.273Z,92.00
2018-03-04T06:29:54.521Z,92.00
2018-03-04T06:32:24.004Z,92.00
2018-03-04T06:34:53.399Z,92.00
2018-03-04T06:37:25.201Z,92.00
2018-03-04T06:39:54.383Z,91.90
2018-03-04T06:42:23.896Z,92.00
2018-03-04T06:44:53.215Z,92.10
2018-03-04T06:47:22.665Z,92.10
2018-03-04T06:49:51.673Z,92.10
2018-03-04T06:52:22.026Z,92.00
2018-03-04T06:54:50.958Z,92.00
2018-03-04T06:57:20.388Z,91.90
2018-03-04T06:59:49.663Z,91.90
2018-03-04T07:02:20.370Z,91.80
2018-03-04T07:04:49.971Z,92.00
2018-03-04T07:07:19.248Z,92.00
2018-03-04T07:09:49.183Z,92.00
2018-03-04T07:12:18.069Z,92.00
2018-03-04T07:14:47.406Z,92.10
2018-03-04T07:17:16.588Z,92.10
2018-03-04T07:19:46.615Z,92.10
2018-03-04T07:22:16.257Z,92.20
2018-03-04T07:24:46.802Z,92.20
2018-03-04T07:27:15.869Z,92.20
2018-03-04T07:29:45.819Z,92.40
2018-03-04T07:32:15.763Z,92.40
2018-03-04T07:34:44.715Z,92.40
2018-03-04T07:37:14.644Z,92.50
2018-03-04T07:39:44.951Z,92.50
2018-03-04T07:42:15.756Z,92.40
2018-03-04T07:44:45.469Z,92.40
2018-03-04T07:47:15.249Z,92.40
2018-03-04T07:49:44.821Z,92.40
2018-03-04T07:52:15.724Z,92.40
2018-03-04T07:54:46.112Z,92.40
2018-03-04T07:57:16.334Z,92.40
2018-03-04T07:59:45.737Z,92.40
2018-03-04T08:02:17.198Z,92.40
2018-03-04T08:04:47.622Z,92.40
2018-03-04T08:07:16.834Z,92.40
2018-03-04T08:09:46.593Z,92.40
2018-03-04T08:12:16.485Z,92.40
2018-03-04T08:14:46.487Z,92.40
2018-03-04T08:17:17.339Z,92.30
2018-03-04T08:19:50.393Z,92.40
2018-03-04T08:22:19.673Z,92.40
2018-03-04T08:24:55.121Z,92.20
2018-03-04T08:27:34.940Z,92.10
2018-03-04T08:30:03.803Z,92.10
2018-03-04T08:32:33.907Z,92.10
2018-03-04T08:35:03.685Z,92.20
2018-03-04T08:37:33.648Z,91.90
2018-03-04T08:40:03.420Z,91.70
2018-03-04T08:42:33.177Z,91.70
2018-03-04T08:45:02.734Z,91.70
2018-03-04T08:47:32.851Z,91.80
2018-03-04T08:50:02.377Z,91.80
2018-03-04T08:52:31.400Z,91.60
2018-03-04T08:55:01.422Z,91.60
2018-03-04T08:57:30.636Z,91.40
2018-03-04T09:00:00.469Z,91.50
2018-03-04T09:02:29.545Z,91.50
2018-03-04T09:04:59.360Z,91.40
2018-03-04T09:07:28.530Z,91.80
2018-03-04T09:09:57.688Z,91.50
2018-03-04T09:12:27.547Z,91.50
2018-03-04T09:14:56.716Z,91.30
2018-03-04T09:17:27.373Z,91.30
2018-03-04T09:19:56.956Z,91.30
2018-03-04T09:22:26.542Z,90.40
2018-03-04T09:24:56.207Z,90.40
2018-03-04T09:27:25.499Z,90.50
2018-03-04T09:29:54.732Z,90.30
2018-03-04T09:32:23.915Z,90.30
2018-03-04T09:34:53.532Z,90.40
2018-03-04T09:37:23.023Z,90.90
2018-03-04T09:39:51.949Z,91.00
2018-03-04T09:42:21.579Z,91.10
2018-03-04T09:44:51.530Z,91.00
2018-03-04T09:47:21.056Z,90.90
2018-03-04T09:49:50.062Z,91.20
2018-03-04T09:52:20.050Z,91.00
2018-03-04T09:54:49.165Z,91.10
2018-03-04T09:57:19.150Z,91.10
2018-03-04T09:59:49.126Z,90.80
2018-03-04T10:02:19.029Z,90.60
2018-03-04T10:04:48.056Z,90.60
2018-03-04T10:07:17.644Z,90.60
2018-03-04T10:09:47.637Z,90.20
2018-03-04T10:12:16.767Z,90.20
2018-03-04T10:14:47.363Z,90.30
2018-03-04T10:17:16.456Z,90.30
2018-03-04T10:19:47.667Z,89.90
2018-03-04T10:22:17.091Z,89.80
2018-03-04T10:24:46.420Z,90.00
2018-03-04T10:27:16.370Z,90.10
2018-03-04T10:29:45.546Z,90.10
2018-03-04T10:32:15.738Z,90.00
2018-03-04T10:34:45.441Z,90.00
2018-03-04T10:37:15.605Z,90.20
2018-03-04T10:39:45.531Z,90.50
2018-03-04T10:42:14.833Z,90.40
2018-03-04T10:44:43.866Z,90.50
2018-03-04T10:47:13.012Z,90.20
2018-03-04T10:49:42.720Z,90.40
2018-03-04T10:52:12.875Z,90.00
2018-03-04T10:54:42.629Z,90.00
2018-03-04T10:57:12.499Z,90.20
2018-03-04T10:59:42.823Z,90.20
2018-03-04T11:02:16.354Z,89.90
2018-03-04T11:04:45.627Z,90.10
2018-03-04T11:07:16.521Z,90.00
2018-03-04T11:09:45.339Z,90.00
2018-03-04T11:12:14.315Z,89.60
2018-03-04T11:14:43.428Z,90.00
2018-03-04T11:17:12.547Z,90.00
2018-03-04T11:19:41.911Z,88.70
2018-03-04T11:22:11.773Z,88.40
2018-03-04T11:24:41.406Z,88.30
2018-03-04T11:27:11.751Z,87.40
2018-03-04T11:29:40.865Z,87.20
2018-03-04T11:32:10.810Z,87.80
2018-03-04T11:34:40.509Z,88.40
2018-03-04T11:37:10.068Z,88.40
2018-03-04T11:39:39.564Z,87.20
2018-03-04T11:42:08.934Z,87.10
2018-03-04T11:44:38.001Z,87.30
2018-03-04T11:47:07.807Z,87.40
2018-03-04T11:49:37.837Z,86.20
2018-03-04T11:52:07.102Z,86.10
2018-03-04T11:54:38.813Z,85.90
2018-03-04T11:57:07.943Z,85.90
2018-03-04T11:59:36.996Z,86.20
2018-03-04T12:02:07.985Z,85.40
2018-03-04T12:04:36.767Z,85.40
2018-03-04T12:07:05.836Z,86.20
2018-03-04T12:09:35.748Z,86.40
2018-03-04T12:12:05.593Z,85.50
2018-03-04T12:14:34.881Z,85.40
2018-03-04T12:17:04.136Z,85.70
2018-03-04T12:19:34.017Z,85.50
2018-03-04T12:22:03.112Z,85.50
2018-03-04T12:24:32.858Z,84.90
2018-03-04T12:27:01.955Z,84.40
2018-03-04T12:29:31.789Z,84.70
2018-03-04T12:32:01.332Z,83.00
2018-03-04T12:34:30.457Z,82.90
2018-03-04T12:36:59.614Z,83.30
2018-03-04T12:39:28.685Z,83.60
2018-03-04T12:41:58.612Z,83.00
2018-03-04T12:44:28.238Z,83.00
2018-03-04T12:46:57.327Z,83.00
2018-03-04T12:49:26.378Z,82.50
2018-03-04T12:51:56.141Z,82.10
2018-03-04T12:54:25.068Z,82.10
2018-03-04T12:56:54.760Z,82.80
2018-03-04T12:59:23.751Z,81.00
2018-03-04T13:01:53.498Z,81.00
2018-03-04T13:04:23.207Z,81.30
2018-03-04T13:06:53.720Z,81.30
2018-03-04T13:09:22.863Z,81.30
2018-03-04T13:11:52.018Z,81.20
2018-03-04T13:14:22.030Z,81.10
2018-03-04T13:16:51.472Z,80.80
2018-03-04T13:19:21.166Z,81.10
2018-03-04T13:21:50.926Z,80.70
2018-03-04T13:24:20.212Z,80.60
2018-03-04T13:26:49.066Z,79.60
2018-03-04T13:29:18.877Z,79.20
2018-03-04T13:31:48.571Z,78.60
2018-03-04T13:34:17.882Z,78.60
2018-03-04T13:36:47.730Z,78.30
2018-03-04T13:39:17.081Z,78.30
2018-03-04T13:41:47.007Z,78.90
2018-03-04T13:44:16.905Z,79.00
2018-03-04T13:46:45.812Z,78.90
2018-03-04T13:49:14.931Z,78.80
2018-03-04T13:51:44.149Z,78.60
2018-03-04T13:54:13.190Z,78.30
2018-03-04T13:56:43.239Z,77.10
2018-03-04T13:59:12.560Z,77.00
2018-03-04T14:01:41.504Z,77.00
2018-03-04T14:04:11.412Z,76.90
2018-03-04T14:06:41.099Z,77.90
2018-03-04T14:09:10.284Z,77.90
2018-03-04T14:11:40.085Z,77.40
2018-03-04T14:14:09.310Z,77.90
2018-03-04T14:16:38.586Z,77.70
2018-03-04T14:19:07.683Z,77.40
2018-03-04T14:21:36.861Z,77.60
2018-03-04T14:24:06.264Z,78.10
2018-03-04T14:26:38.109Z,76.90
2018-03-04T14:29:07.331Z,76.90
2018-03-04T14:31:36.301Z,77.20
2018-03-04T14:34:06.301Z,76.30
2018-03-04T14:36:35.764Z,76.40
2018-03-04T14:39:06.327Z,76.80
2018-03-04T14:41:37.012Z,77.30
2018-03-04T14:44:06.755Z,76.70
2018-03-04T14:46:36.295Z,76.60
2018-03-04T14:49:05.470Z,76.30
2018-03-04T14:51:35.519Z,76.10
2018-03-04T14:54:04.553Z,76.20
2018-03-04T14:56:33.485Z,76.30
2018-03-04T14:59:03.200Z,76.50
2018-03-04T15:01:31.831Z,76.50
2018-03-04T15:04:00.777Z,76.80
2018-03-04T15:06:29.933Z,77.00
2018-03-04T15:08:59.787Z,76.70
2018-03-04T15:11:28.824Z,76.50
2018-03-04T15:13:57.732Z,76.70
2018-03-04T15:16:28.924Z,77.30
2018-03-04T15:18:57.938Z,77.30
2018-03-04T15:21:27.016Z,76.80
2018-03-04T15:23:56.095Z,76.80
2018-03-04T15:26:24.879Z,77.10
2018-03-04T15:28:55.360Z,77.40
2018-03-04T15:31:25.701Z,77.00
2018-03-04T15:33:55.312Z,77.10
2018-03-04T15:36:25.830Z,77.40
2018-03-04T15:38:55.943Z,78.00
2018-03-04T15:41:25.933Z,78.10
2018-03-04T15:43:54.911Z,77.70
2018-03-04T15:46:25.213Z,78.20
2018-03-04T15:48:54.210Z,78.20
2018-03-04T15:51:22.988Z,78.60
2018-03-04T15:53:52.337Z,78.60
2018-03-04T15:56:21.378Z,79.00
2018-03-04T15:58:50.471Z,78.60
2018-03-04T16:01:20.439Z,79.10
2018-03-04T16:03:49.845Z,79.00
2018-03-04T16:06:19.352Z,78.80
2018-03-04T16:08:48.896Z,78.60
2018-03-04T16:11:19.760Z,78.40
2018-03-04T16:13:48.872Z,78.40
2018-03-04T16:16:17.749Z,78.40
2018-03-04T16:18:47.128Z,78.20
2018-03-04T16:21:15.876Z,78.10
2018-03-04T16:23:44.735Z,78.40
2018-03-04T16:26:13.477Z,78.50
2018-03-04T16:28:43.390Z,79.10
2018-03-04T16:31:13.115Z,79.20
2018-03-04T16:33:42.042Z,79.20
2018-03-04T16:36:11.173Z,79.30
2018-03-04T16:38:41.561Z,79.40
2018-03-04T16:41:10.636Z,79.70
2018-03-04T16:43:40.649Z,80.40
2018-03-04T16:46:09.453Z,80.40
2018-03-04T16:48:38.339Z,80.20
2018-03-04T16:51:07.424Z,80.50
2018-03-04T16:53:37.448Z,80.40
2018-03-04T16:56:07.358Z,80.80
2018-03-04T16:58:36.159Z,81.00
2018-03-04T17:01:05.161Z,81.30
2018-03-04T17:03:34.425Z,81.20
2018-03-04T17:06:04.096Z,81.30
2018-03-04T17:08:32.856Z,81.30
2018-03-04T17:11:02.019Z,81.60
2018-03-04T17:13:31.140Z,81.50
2018-03-04T17:16:00.100Z,81.70
2018-03-04T17:18:29.300Z,81.90
2018-03-04T17:20:59.104Z,81.90
2018-03-04T17:23:28.897Z,81.80
2018-03-04T17:25:57.856Z,81.90
2018-03-04T17:28:27.843Z,81.70
2018-03-04T17:30:56.739Z,81.70
2018-03-04T17:33:26.088Z,81.70
2018-03-04T17:35:56.340Z,82.00
2018-03-04T17:38:26.234Z,81.70
2018-03-04T17:40:56.310Z,81.60
2018-03-04T17:43:25.189Z,81.50
2018-03-04T17:45:54.130Z,82.00
2018-03-04T17:48:23.222Z,81.90
2018-03-04T17:50:53.086Z,82.40
2018-03-04T17:53:22.458Z,82.40
2018-03-04T17:55:52.192Z,82.10
2018-03-04T17:58:21.367Z,82.00
2018-03-04T18:00:51.181Z,82.20
2018-03-04T18:03:20.902Z,82.30
2018-03-04T18:05:49.758Z,82.30
2018-03-04T18:08:18.861Z,82.70
2018-03-04T18:10:48.539Z,83.40
2018-03-04T18:13:17.590Z,83.20
2018-03-04T18:15:46.769Z,83.40
2018-03-04T18:18:16.693Z,83.70
2018-03-04T18:20:46.703Z,83.70
2018-03-04T18:23:16.612Z,83.40
2018-03-04T18:25:46.283Z,82.60
2018-03-04T18:28:15.422Z,82.60
2018-03-04T18:30:44.349Z,82.70
2018-03-04T18:33:13.732Z,82.70
2018-03-04T18:35:42.678Z,82.30
2018-03-04T18:38:12.696Z,81.40
2018-03-04T18:40:42.520Z,81.10
2018-03-04T18:43:16.294Z,80.70
2018-03-04T18:45:46.972Z,80.60
2018-03-04T18:48:16.127Z,80.60
2018-03-04T18:50:45.917Z,80.50
2018-03-04T18:53:15.757Z,80.50
2018-03-04T18:55:44.473Z,80.50
2018-03-04T18:58:14.378Z,80.80
2018-03-04T19:00:45.063Z,80.70
2018-03-04T19:03:14.024Z,80.70
2018-03-04T19:05:43.057Z,80.80
2018-03-04T19:08:12.552Z,80.60
2018-03-04T19:10:42.100Z,80.80
2018-03-04T19:13:13.465Z,80.40
2018-03-04T19:15:43.637Z,80.10
2018-03-04T19:18:12.659Z,80.00
2018-03-04T19:20:44.439Z,80.30
2018-03-04T19:23:14.019Z,80.40
2018-03-04T19:25:44.465Z,80.40
2018-03-04T19:28:15.150Z,80.70
2018-03-04T19:30:44.062Z,80.70
2018-03-04T19:33:13.272Z,81.10
2018-03-04T19:35:43.354Z,80.90
2018-03-04T19:38:12.128Z,80.80
2018-03-04T19:40:40.922Z,81.00
2018-03-04T19:43:09.820Z,81.10
2018-03-04T19:45:38.733Z,81.00
2018-03-04T19:48:08.362Z,81.40
2018-03-04T19:50:37.229Z,81.90
2018-03-04T19:53:06.214Z,82.30
2018-03-04T19:55:35.295Z,82.70
2018-03-04T19:58:04.282Z,82.90
2018-03-04T20:00:34.120Z,83.20
2018-03-04T20:03:04.125Z,83.90
2018-03-04T20:05:33.885Z,83.20
2018-03-04T20:08:05.434Z,84.00
2018-03-04T20:10:35.361Z,83.70
2018-03-04T20:13:04.276Z,83.50
2018-03-04T20:15:34.212Z,83.70
2018-03-04T20:18:03.329Z,83.70
2018-03-04T20:20:33.192Z,83.70
2018-03-04T20:23:03.033Z,81.90
2018-03-04T20:25:33.144Z,81.10
2018-03-04T20:28:02.241Z,81.10
2018-03-04T20:30:31.105Z,80.80
2018-03-04T20:33:01.183Z,80.50
2018-03-04T20:35:30.985Z,80.20
2018-03-04T20:38:01.647Z,80.20
2018-03-04T20:40:31.791Z,80.10
2018-03-04T20:43:00.797Z,79.90
2018-03-04T20:45:31.464Z,80.00
2018-03-04T20:48:00.475Z,79.60
2018-03-04T20:50:29.269Z,79.40
2018-03-04T20:52:58.441Z,79.60
2018-03-04T20:55:28.288Z,79.70
2018-03-04T20:57:57.214Z,79.70
2018-03-04T21:00:26.283Z,79.60
2018-03-04T21:02:56.423Z,79.50
2018-03-04T21:05:26.398Z,79.40
2018-03-04T21:07:56.767Z,79.00
2018-03-04T21:10:26.626Z,78.90
2018-03-04T21:12:56.053Z,79.00
2018-03-04T21:15:25.010Z,79.00
2018-03-04T21:17:53.942Z,79.10
2018-03-04T21:20:22.994Z,78.80
2018-03-04T21:22:52.138Z,78.60
2018-03-04T21:25:21.597Z,78.50
2018-03-04T21:27:51.110Z,78.10
2018-03-04T21:30:20.154Z,78.30
2018-03-04T21:32:49.369Z,78.60
2018-03-04T21:35:18.559Z,78.60
2018-03-04T21:37:48.028Z,78.80
2018-03-04T21:40:17.050Z,78.80
2018-03-04T21:42:45.851Z,78.70
2018-03-04T21:45:15.594Z,78.70
2018-03-04T21:47:46.156Z,79.10
2018-03-04T21:50:15.270Z,79.00
2018-03-04T21:52:44.008Z,79.00
2018-03-04T21:55:13.064Z,78.60
2018-03-04T21:57:42.880Z,78.30
2018-03-04T22:00:12.166Z,78.20
2018-03-04T22:02:40.990Z,78.20
2018-03-04T22:05:10.528Z,78.10
2018-03-04T22:07:40.203Z,78.10
2018-03-04T22:10:10.150Z,78.10
2018-03-04T22:12:39.793Z,78.20
2018-03-04T22:15:10.558Z,78.50
2018-03-04T22:17:40.403Z,78.40
2018-03-04T22:20:10.259Z,78.40
2018-03-04T22:22:39.384Z,78.50
2018-03-04T22:25:09.327Z,78.90
2018-03-04T22:27:38.342Z,79.10
2018-03-04T22:30:07.532Z,78.90
2018-03-04T22:32:36.458Z,78.70
2018-03-04T22:35:05.465Z,78.60
2018-03-04T22:37:35.065Z,78.50
2018-03-04T22:40:04.995Z,78.30
2018-03-04T22:42:34.855Z,78.50
2018-03-04T22:45:04.232Z,78.40
2018-03-04T22:47:33.203Z,78.50
2018-03-04T22:50:03.507Z,78.80
2018-03-04T22:52:32.546Z,78.80
2018-03-04T22:55:02.376Z,79.10
2018-03-04T22:57:31.964Z,79.10
2018-03-04T23:00:01.069Z,79.00
2018-03-04T23:02:30.089Z,79.10
2018-03-04T23:04:59.356Z,79.40
2018-03-04T23:07:28.471Z,79.60
2018-03-04T23:09:58.172Z,80.00
2018-03-04T23:12:27.554Z,80.60
2018-03-04T23:14:56.755Z,81.00
2018-03-04T23:17:26.150Z,81.30
2018-03-04T23:19:55.376Z,81.30
2018-03-04T23:22:25.342Z,81.50
2018-03-04T23:24:54.914Z,81.90
2018-03-04T23:27:24.253Z,81.90
2018-03-04T23:29:54.867Z,82.50
2018-03-04T23:32:24.776Z,82.60
2018-03-04T23:34:55.392Z,83.10
2018-03-04T23:37:25.650Z,83.10
2018-03-04T23:39:54.748Z,83.50
2018-03-04T23:42:24.049Z,83.70
2018-03-04T23:44:53.589Z,83.60
2018-03-04T23:47:22.884Z,83.80
2018-03-04T23:49:53.003Z,84.00
2018-03-04T23:52:22.606Z,84.40
2018-03-04T23:54:52.014Z,84.80
2018-03-04T23:57:21.767Z,85.00
2018-03-04T23:59:52.593Z,86.30
